Time;durP1;ratioP1;P1;durP2;ratioP2;P2;SDS_P1;SDS_P2;PMS_P1;PMS_P2;Temp;Humidity;BMP_temperature;BMP_pressure;BME280_temperature;BME280_humidity;BME280_pressure;Samples;Min_cycle;Max_cycle;Signal;HPM_P1;HPM_P2
2023/09/26 00:00:54;;;;;;;3.50;3.20;;;;;;;14.40;100.00;102190.84;5076331;28;20059;-73
2023/09/26 00:03:20;;;;;;;3.88;3.58;;;;;;;14.39;100.00;102191.78;5076913;28;20028;-73
2023/09/26 00:05:46;;;;;;;4.82;3.45;;;;;;;14.38;100.00;102190.91;5075741;28;20327;-73
2023/09/26 00:08:12;;;;;;;4.40;3.95;;;;;;;14.38;100.00;102195.31;5075997;28;20247;-73
2023/09/26 00:10:37;;;;;;;4.05;3.65;;;;;;;14.37;100.00;102198.84;5074170;28;20024;-73
2023/09/26 00:13:03;;;;;;;6.28;4.00;;;;;;;14.37;100.00;102196.22;5075944;28;20070;-73
2023/09/26 00:15:28;;;;;;;4.22;3.70;;;;;;;14.37;100.00;102199.75;5075403;28;20084;-73
2023/09/26 00:17:54;;;;;;;4.15;3.60;;;;;;;14.37;100.00;102198.84;5074095;28;20257;-73
2023/09/26 00:20:23;;;;;;;4.15;3.85;;;;;;;14.37;100.00;102205.00;5076092;28;20266;-73
2023/09/26 00:22:49;;;;;;;4.53;4.10;;;;;;;14.37;100.00;102212.91;5074862;28;20036;-73
2023/09/26 00:25:15;;;;;;;4.97;4.40;;;;;;;14.35;100.00;102209.47;5075634;28;20051;-73
2023/09/26 00:27:40;;;;;;;4.50;4.05;;;;;;;14.34;100.00;102212.16;5075325;28;20375;-73
2023/09/26 00:30:08;;;;;;;5.00;4.47;;;;;;;14.33;100.00;102210.44;5075429;28;20040;-73
2023/09/26 00:32:33;;;;;;;6.32;4.32;;;;;;;14.32;100.00;102212.22;5075227;28;20016;-73
2023/09/26 00:35:00;;;;;;;4.72;4.32;;;;;;;14.31;100.00;102205.19;5075272;28;20334;-73
2023/09/26 00:37:26;;;;;;;5.97;4.85;;;;;;;14.31;100.00;102215.75;5075378;28;20036;-73
2023/09/26 00:39:53;;;;;;;5.43;4.93;;;;;;;14.31;100.00;102215.75;5075499;28;20093;-73
2023/09/26 00:42:18;;;;;;;5.78;4.65;;;;;;;14.31;100.00;102213.09;5075627;28;20515;-73
2023/09/26 00:44:43;;;;;;;5.18;4.70;;;;;;;14.29;100.00;102207.03;5075546;28;20032;-73
2023/09/26 00:47:09;;;;;;;4.80;4.30;;;;;;;14.26;100.00;102201.91;5075571;28;20052;-73
2023/09/26 00:49:35;;;;;;;6.72;5.03;;;;;;;14.26;100.00;102204.53;5074304;28;20063;-73
2023/09/26 00:52:04;;;;;;;5.57;5.10;;;;;;;14.26;100.00;102208.91;5075261;28;20255;-73
2023/09/26 00:54:30;;;;;;;6.72;4.68;;;;;;;14.25;100.00;102202.78;5075248;28;20056;-73
2023/09/26 00:56:57;;;;;;;5.95;5.03;;;;;;;14.27;100.00;102202.75;5075359;28;20036;-73
2023/09/26 00:59:23;;;;;;;4.90;4.40;;;;;;;14.27;100.00;102192.19;5075405;28;20058;-73
2023/09/26 01:04:39;;;;;;;4.93;4.53;;;;;;;14.27;100.00;102202.75;5322913;22;20067;-85
2023/09/26 01:07:05;;;;;;;5.78;5.18;;;;;;;14.27;100.00;102202.75;5074642;28;20048;-85
2023/09/26 01:09:30;;;;;;;6.78;5.53;;;;;;;14.25;100.00;102194.03;5073629;28;20044;-86
2023/09/26 01:11:56;;;;;;;6.47;5.50;;;;;;;14.24;100.00;102200.19;5053685;28;20040;-85
2023/09/26 01:14:21;;;;;;;6.22;5.32;;;;;;;14.23;100.00;102196.72;5053790;28;20335;-85
2023/09/26 01:16:54;;;;;;;6.90;5.22;;;;;;;14.21;100.00;102188.84;5053234;28;20021;-85
2023/09/26 01:19:20;;;;;;;5.78;4.93;;;;;;;14.21;100.00;102193.28;5054908;28;20100;-85
2023/09/26 01:21:45;;;;;;;6.00;5.50;;;;;;;14.19;100.00;102198.59;5055210;28;20378;-85
2023/09/26 01:24:11;;;;;;;6.95;5.53;;;;;;;14.18;100.00;102194.22;5074854;28;20043;-85
2023/09/26 01:26:37;;;;;;;5.43;4.72;;;;;;;14.19;100.00;102195.09;5074453;28;20036;-86
2023/09/26 01:29:03;;;;;;;6.28;5.47;;;;;;;14.17;100.00;102195.16;5074657;28;20108;-85
2023/09/26 01:31:28;;;;;;;6.07;5.47;;;;;;;14.19;100.00;102189.84;5072753;28;20078;-85
2023/09/26 01:33:54;;;;;;;5.22;4.78;;;;;;;14.17;100.00;102194.28;5074745;28;20032;-86
2023/09/26 01:36:21;;;;;;;5.97;4.78;;;;;;;14.16;100.00;102185.53;5074263;28;20024;-86
2023/09/26 01:38:46;;;;;;;5.20;4.70;;;;;;;14.15;100.00;102178.53;5074134;28;20031;-85
2023/09/26 01:41:12;;;;;;;5.70;5.20;;;;;;;14.15;100.00;102172.41;5074675;28;20059;-85
2023/09/26 01:43:38;;;;;;;5.45;4.95;;;;;;;14.14;100.00;102161.00;5073175;28;20234;-85
2023/09/26 01:46:04;;;;;;;5.90;5.30;;;;;;;14.14;100.00;102153.09;5075107;28;20037;-85
2023/09/26 01:48:29;;;;;;;6.60;5.78;;;;;;;14.15;100.00;102165.38;5074758;28;20214;-86
2023/09/26 01:50:54;;;;;;;6.55;5.72;;;;;;;14.14;100.00;102160.16;5073453;28;20196;-86
2023/09/26 01:53:20;;;;;;;6.20;5.60;;;;;;;14.14;100.00;102166.28;5073108;28;20379;-86
2023/09/26 01:55:45;;;;;;;7.18;6.00;;;;;;;14.14;100.00;102168.91;5074170;28;20321;-86
2023/09/26 01:58:11;;;;;;;8.85;6.50;;;;;;;14.12;100.00;102168.09;5075098;28;20032;-86
2023/09/26 02:00:36;;;;;;;9.48;6.20;;;;;;;14.10;100.00;102161.16;5073880;28;20032;-85
2023/09/26 02:03:02;;;;;;;6.72;5.82;;;;;;;14.09;100.00;102162.94;5075618;28;20036;-86
2023/09/26 02:05:27;;;;;;;6.05;5.55;;;;;;;14.09;100.00;102156.81;5092811;28;20238;-85
2023/09/26 02:07:53;;;;;;;6.65;6.05;;;;;;;14.11;100.00;102160.25;5094306;28;20036;-85
2023/09/26 02:10:18;;;;;;;6.65;6.03;;;;;;;14.10;100.00;102158.50;5093223;28;20036;-85
2023/09/26 02:12:51;;;;;;;7.72;6.28;;;;;;;14.10;100.00;102158.50;5093124;28;20023;-85
2023/09/26 02:15:16;;;;;;;6.93;6.25;;;;;;;14.09;100.00;102159.44;5094853;28;20036;-86
2023/09/26 02:17:42;;;;;;;7.65;6.60;;;;;;;14.09;100.00;102154.19;5093907;28;20128;-87
2023/09/26 02:20:20;;;;;;;7.47;6.78;;;;;;;14.07;100.00;102148.97;5094787;28;20113;-87
2023/09/26 02:22:47;;;;;;;8.13;7.05;;;;;;;14.08;100.00;102145.44;5093830;28;20218;-87
2023/09/26 02:25:15;;;;;;;7.93;7.13;;;;;;;14.06;100.00;102147.25;5094329;28;20028;-87
2023/09/26 02:27:41;;;;;;;8.20;7.20;;;;;;;14.06;100.00;102147.25;5093799;28;20035;-87
2023/09/26 02:30:09;;;;;;;7.85;7.07;;;;;;;14.05;100.00;102150.78;5094457;28;20038;-87
2023/09/26 02:32:36;;;;;;;8.32;7.45;;;;;;;14.04;100.00;102141.16;5093800;28;20085;-87
2023/09/26 02:35:02;;;;;;;7.25;6.65;;;;;;;14.03;100.00;102152.63;5093121;28;20023;-86
2023/09/26 02:37:28;;;;;;;7.88;7.07;;;;;;;14.00;100.00;102152.72;5076478;28;20046;-85
2023/09/26 02:39:53;;;;;;;9.57;7.93;;;;;;;13.99;100.00;102154.50;5074303;28;20467;-85
2023/09/26 02:42:19;;;;;;;8.23;7.43;;;;;;;13.98;100.00;102149.28;5073965;28;20223;-85
2023/09/26 02:44:44;;;;;;;8.73;7.38;;;;;;;13.96;100.00;102146.69;5074341;28;20123;-85
2023/09/26 02:47:09;;;;;;;7.60;6.80;;;;;;;13.96;100.00;102144.06;5074560;28;20036;-85
2023/09/26 02:49:35;;;;;;;7.70;7.00;;;;;;;13.96;100.00;102146.69;5073440;28;20032;-86
2023/09/26 02:52:01;;;;;;;9.18;7.18;;;;;;;13.96;100.00;102137.94;5073940;28;20028;-85
2023/09/26 02:54:26;;;;;;;8.55;7.38;;;;;;;13.96;100.00;102137.94;5073813;28;20025;-86
2023/09/26 02:56:51;;;;;;;7.75;6.95;;;;;;;13.96;100.00;102140.56;5074433;28;20047;-85
2023/09/26 02:59:17;;;;;;;8.00;7.20;;;;;;;13.94;100.00;102140.63;5073990;28;20277;-86
2023/09/26 03:01:42;;;;;;;7.90;7.15;;;;;;;13.93;100.00;102130.97;5083005;28;20240;-86
2023/09/26 03:04:07;;;;;;;7.57;6.90;;;;;;;13.94;100.00;102137.13;5094110;28;20354;-86
2023/09/26 03:06:33;;;;;;;8.25;7.32;;;;;;;13.94;100.00;102137.13;5092126;28;20032;-85
2023/09/26 03:08:59;;;;;;;10.15;7.85;;;;;;;13.93;100.00;102135.41;5093750;28;20447;-85
2023/09/26 03:11:24;;;;;;;8.15;7.35;;;;;;;13.93;100.00;102132.75;5092565;28;20222;-85
2023/09/26 03:13:49;;;;;;;8.50;7.70;;;;;;;13.91;100.00;102127.53;5097207;28;20035;-86
2023/09/26 03:16:15;;;;;;;8.00;7.30;;;;;;;13.92;100.00;102131.06;5096160;28;20345;-85
2023/09/26 03:18:41;;;;;;;10.65;7.55;;;;;;;13.92;100.00;102125.78;5097240;28;20039;-85
2023/09/26 03:21:06;;;;;;;8.65;7.80;;;;;;;13.91;100.00;102121.44;5096090;28;20024;-85
2023/09/26 03:23:32;;;;;;;9.35;8.10;;;;;;;13.90;100.00;102122.31;5096865;28;20349;-86
2023/09/26 03:25:58;;;;;;;10.05;8.68;;;;;;;13.90;100.00;102120.56;5096001;28;20399;-85
2023/09/26 03:28:24;;;;;;;9.52;8.48;;;;;;;13.90;100.00;102110.03;5097171;28;20099;-86
2023/09/26 03:30:49;;;;;;;9.32;8.15;;;;;;;13.89;100.00;102108.31;5095561;28;20024;-85
2023/09/26 03:33:14;;;;;;;11.80;9.05;;;;;;;13.89;100.00;102103.03;5097341;28;20046;-86
2023/09/26 03:35:40;;;;;;;11.77;9.25;;;;;;;13.89;100.00;102102.19;5095299;28;20047;-85
2023/09/26 03:38:05;;;;;;;12.25;9.55;;;;;;;13.88;100.00;102098.69;5095643;28;20024;-86
2023/09/26 03:40:31;;;;;;;12.38;10.15;;;;;;;13.87;100.00;102101.38;5096901;28;20039;-85
2023/09/26 03:42:56;;;;;;;11.90;10.27;;;;;;;13.89;100.00;102095.13;5095884;28;20023;-86
2023/09/26 03:45:22;;;;;;;10.77;9.40;;;;;;;13.89;100.00;102092.50;5097127;28;20032;-85
2023/09/26 03:47:48;;;;;;;11.60;9.52;;;;;;;13.91;100.00;102098.56;5095993;28;20982;-85
2023/09/26 03:50:13;;;;;;;11.48;10.32;;;;;;;13.90;100.00;102088.97;5096522;28;20044;-85
2023/09/26 03:52:39;;;;;;;10.63;9.52;;;;;;;13.92;100.00;102096.81;5096139;28;20043;-85
2023/09/26 03:55:05;;;;;;;10.25;9.20;;;;;;;13.94;100.00;102097.63;5097127;28;20036;-86
2023/09/26 03:57:31;;;;;;;11.32;9.98;;;;;;;13.94;100.00;102097.63;5096139;28;20339;-85
2023/09/26 03:59:56;;;;;;;10.00;9.10;;;;;;;13.94;100.00;102090.56;5086219;28;20036;-85
2023/09/26 04:02:22;;;;;;;11.73;9.85;;;;;;;13.95;100.00;102094.06;5076572;28;20415;-85
2023/09/26 04:04:48;;;;;;;11.75;9.85;;;;;;;13.94;100.00;102087.09;5093424;28;20439;-86
2023/09/26 04:07:13;;;;;;;14.57;10.18;;;;;;;13.94;100.00;102087.94;5094778;28;20257;-86
2023/09/26 04:09:39;;;;;;;11.85;9.57;;;;;;;13.95;100.00;102078.25;5094805;28;20444;-86
2023/09/26 04:12:04;;;;;;;12.52;9.70;;;;;;;13.94;100.00;102069.50;5095214;28;20042;-85
2023/09/26 04:14:30;;;;;;;10.75;9.18;;;;;;;13.95;100.00;102081.78;5096292;28;20060;-85
2023/09/26 04:16:56;;;;;;;10.85;9.50;;;;;;;13.93;100.00;102074.81;5079777;28;20383;-86
2023/09/26 04:19:22;;;;;;;11.40;9.75;;;;;;;13.93;100.00;102077.47;5076462;28;20071;-86
2023/09/26 04:21:47;;;;;;;12.63;10.07;;;;;;;13.93;100.00;102083.56;5075811;28;20055;-85
2023/09/26 04:24:13;;;;;;;11.43;10.23;;;;;;;13.93;100.00;102088.00;5084149;28;20032;-86
2023/09/26 04:26:38;;;;;;;12.48;10.65;;;;;;;13.93;100.00;102088.84;5095797;28;20035;-86
2023/09/26 04:29:05;;;;;;;12.48;9.80;;;;;;;13.95;100.00;102091.44;5096312;28;20073;-85
2023/09/26 04:31:30;;;;;;;13.15;10.95;;;;;;;13.94;100.00;102084.47;5095606;28;20032;-85
2023/09/26 04:33:56;;;;;;;12.23;10.30;;;;;;;13.95;100.00;102068.59;5096465;28;20142;-85
2023/09/26 04:36:22;;;;;;;11.35;10.13;;;;;;;13.98;100.00;102067.63;5096278;28;20078;-86
2023/09/26 04:38:47;;;;;;;14.05;10.38;;;;;;;13.98;100.00;102073.75;5095989;28;20032;-85
2023/09/26 04:41:16;;;;;;;10.88;9.68;;;;;;;13.99;100.00;102064.09;5095132;28;20115;-85
2023/09/26 04:43:42;;;;;;;12.40;11.10;;;;;;;14.01;100.00;102070.16;5094195;28;20280;-85
2023/09/26 04:46:14;;;;;;;14.82;11.65;;;;;;;14.02;100.00;102061.31;5095965;28;20032;-85
2023/09/26 04:48:42;;;;;;;12.45;11.15;;;;;;;14.00;100.00;102058.75;5095571;28;20035;-85
2023/09/26 04:51:08;;;;;;;12.98;11.25;;;;;;;13.99;100.00;102062.31;5096100;28;20032;-85
2023/09/26 04:53:35;;;;;;;14.60;11.32;;;;;;;13.99;100.00;102062.31;5077065;28;20100;-86
2023/09/26 04:56:03;;;;;;;13.73;11.07;;;;;;;13.99;100.00;102067.59;5075789;28;20326;-85
2023/09/26 04:58:32;;;;;;;12.63;10.55;;;;;;;13.99;100.00;102064.09;5076321;28;20051;-86
2023/09/26 05:01:00;;;;;;;14.00;10.98;;;;;;;13.97;100.00;102061.50;5095343;28;20038;-85
2023/09/26 05:03:27;;;;;;;11.80;10.60;;;;;;;13.97;100.00;102060.63;5093735;28;20030;-85
2023/09/26 05:05:52;;;;;;;12.65;11.35;;;;;;;13.96;100.00;102069.47;5095455;28;20156;-85
2023/09/26 05:08:18;;;;;;;14.98;11.98;;;;;;;13.94;100.00;102069.50;5093292;28;20066;-85
2023/09/26 05:10:43;;;;;;;14.63;12.15;;;;;;;13.94;100.00;102066.03;5093803;28;20058;-85
2023/09/26 05:13:09;;;;;;;14.25;12.70;;;;;;;13.92;100.00;102068.72;5090504;28;20081;-85
2023/09/26 05:15:35;;;;;;;13.98;10.75;;;;;;;13.93;100.00;102070.41;5073114;28;20024;-85
2023/09/26 05:18:01;;;;;;;14.77;11.63;;;;;;;13.94;100.00;102063.38;5085469;28;20028;-85
2023/09/26 05:20:26;;;;;;;13.30;11.45;;;;;;;13.93;100.00;102048.50;5094702;28;20047;-85
2023/09/26 05:22:52;;;;;;;12.30;10.93;;;;;;;13.92;100.00;102050.28;5093584;28;20035;-85
2023/09/26 05:25:17;;;;;;;12.23;11.02;;;;;;;13.92;100.00;102044.16;5090596;28;20036;-86
2023/09/26 05:27:44;;;;;;;13.40;11.52;;;;;;;13.92;100.00;102046.78;5090240;28;20326;-85
2023/09/26 05:30:11;;;;;;;11.65;10.45;;;;;;;13.93;100.00;102066.94;5094252;28;20035;-86
2023/09/26 05:32:37;;;;;;;11.73;10.48;;;;;;;13.92;100.00;102063.44;5089625;28;20023;-85
2023/09/26 05:35:04;;;;;;;11.38;10.25;;;;;;;13.93;100.00;102066.94;5094097;28;20393;-85
2023/09/26 05:37:30;;;;;;;11.15;10.05;;;;;;;13.92;100.00;102066.06;5093692;28;20028;-85
2023/09/26 05:39:55;;;;;;;12.25;10.73;;;;;;;13.91;100.00;102074.88;5094592;28;20039;-85
2023/09/26 05:42:21;;;;;;;14.63;11.25;;;;;;;13.89;100.00;102081.13;5093038;28;20246;-85
2023/09/26 05:44:46;;;;;;;12.93;11.30;;;;;;;13.88;100.00;102076.75;5092729;28;20044;-85
2023/09/26 05:47:11;;;;;;;14.63;10.85;;;;;;;13.85;100.00;102077.72;5094617;28;20081;-85
2023/09/26 05:49:37;;;;;;;14.32;11.45;;;;;;;13.83;100.00;102069.03;5092406;28;20036;-85
2023/09/26 05:52:02;;;;;;;14.38;11.35;;;;;;;13.81;100.00;102069.09;5094439;28;20070;-86
2023/09/26 05:54:31;;;;;;;13.63;10.95;;;;;;;13.81;100.00;102073.50;5093744;28;20046;-85
2023/09/26 05:56:56;;;;;;;14.82;11.23;;;;;;;13.80;100.00;102072.63;5094909;28;20081;-85
2023/09/26 05:59:31;;;;;;;13.45;10.60;;;;;;;13.82;100.00;102080.47;5094266;28;20036;-86
2023/09/26 06:01:57;;;;;;;11.90;10.70;;;;;;;13.82;100.00;102078.72;5094813;28;20035;-85
2023/09/26 06:04:22;;;;;;;11.13;9.95;;;;;;;13.82;100.00;102076.06;5092939;28;20094;-85
2023/09/26 06:06:47;;;;;;;12.30;10.93;;;;;;;13.82;100.00;102067.28;5084741;28;20322;-86
2023/09/26 06:09:13;;;;;;;12.15;10.93;;;;;;;13.82;100.00;102064.66;5092276;28;20105;-85
2023/09/26 06:11:39;;;;;;;12.65;11.00;;;;;;;13.80;100.00;102059.44;5094338;28;20039;-86
2023/09/26 06:14:05;;;;;;;14.10;10.45;;;;;;;13.80;100.00;102059.44;5092862;28;20039;-85
2023/09/26 06:16:30;;;;;;;11.90;10.70;;;;;;;13.81;100.00;102057.69;5090637;28;20039;-85
2023/09/26 06:18:56;;;;;;;12.70;10.77;;;;;;;13.81;100.00;102057.69;5075086;28;20048;-85
2023/09/26 06:21:21;;;;;;;14.38;11.98;;;;;;;13.82;100.00;102060.28;5074270;28;20058;-85
2023/09/26 06:23:48;;;;;;;12.00;10.80;;;;;;;13.82;100.00;102052.38;5093608;28;20043;-86
2023/09/26 06:26:14;;;;;;;11.82;10.32;;;;;;;13.84;100.00;102052.31;5093961;28;20039;-86
2023/09/26 06:28:39;;;;;;;13.60;11.20;;;;;;;13.83;100.00;102048.81;5090979;28;20109;-85
2023/09/26 06:31:07;;;;;;;11.25;10.05;;;;;;;13.85;100.00;102047.91;5092765;28;20071;-86
2023/09/26 06:33:33;;;;;;;12.50;11.18;;;;;;;13.87;100.00;102059.25;5086326;28;20032;-85
2023/09/26 06:36:04;;;;;;;11.77;10.57;;;;;;;13.87;100.00;102057.47;5088573;28;20051;-85
2023/09/26 06:38:29;;;;;;;14.57;10.88;;;;;;;13.88;100.00;102051.31;5089413;28;20031;-86
2023/09/26 06:41:02;;;;;;;17.38;12.05;;;;;;;13.88;100.00;102056.56;5087605;28;20361;-86
2023/09/26 06:43:27;;;;;;;16.45;12.02;;;;;;;13.92;100.00;102047.63;5089732;28;20065;-85
2023/09/26 06:45:53;;;;;;;15.77;11.98;;;;;;;13.96;100.00;102054.50;5086106;28;20059;-85
2023/09/26 06:48:19;;;;;;;15.82;12.00;;;;;;;13.95;100.00;102050.19;5089565;28;20032;-85
2023/09/26 06:50:47;;;;;;;13.10;11.60;;;;;;;13.98;100.00;102050.03;5088192;28;20040;-86
2023/09/26 06:53:17;;;;;;;13.98;11.52;;;;;;;14.02;100.00;102041.13;5089823;28;20034;-86
2023/09/26 06:55:43;;;;;;;18.95;13.00;;;;;;;14.05;100.00;102042.78;5090167;28;20121;-86
2023/09/26 06:58:08;;;;;;;16.58;12.82;;;;;;;14.08;100.00;102042.69;5092296;28;20043;-86
2023/09/26 07:00:35;;;;;;;14.35;11.65;;;;;;;14.09;100.00;102041.75;5089497;28;20078;-86
2023/09/26 07:03:02;;;;;;;15.05;12.23;;;;;;;14.11;100.00;102039.06;5089230;28;20268;-86
2023/09/26 07:05:28;;;;;;;19.13;12.95;;;;;;;14.16;100.00;102053.78;5089436;28;20052;-86
2023/09/26 07:07:54;;;;;;;15.00;11.68;;;;;;;14.20;100.00;102044.84;5090907;28;20041;-86
2023/09/26 07:10:22;;;;;;;16.65;13.50;;;;;;;14.23;100.00;102049.16;5091956;28;20036;-86
2023/09/26 07:12:48;;;;;;;14.65;12.38;;;;;;;14.25;100.00;102047.34;5090957;28;20354;-86
2023/09/26 07:15:13;;;;;;;16.05;11.98;;;;;;;14.27;100.00;102045.50;5095093;28;20039;-86
2023/09/26 07:17:39;;;;;;;15.65;12.15;;;;;;;14.29;100.00;102048.94;5090254;28;20039;-86
2023/09/26 07:20:07;;;;;;;13.80;11.77;;;;;;;14.35;100.00;102050.47;5091359;28;20039;-86
2023/09/26 07:22:34;;;;;;;12.23;11.00;;;;;;;14.37;100.00;102049.53;5089793;28;20319;-86
2023/09/26 07:25:00;;;;;;;12.40;10.63;;;;;;;14.42;100.00;102048.47;5085508;28;20258;-86
2023/09/26 07:27:25;;;;;;;12.98;10.70;;;;;;;14.44;100.00;102052.75;5096368;28;20040;-86
2023/09/26 07:29:52;;;;;;;14.55;11.80;;;;;;;14.46;100.00;102058.88;5095660;28;20040;-86
2023/09/26 07:35:32;;;;;;;15.02;11.02;;;;;;;14.50;100.00;102055.19;5085110;28;20287;-86
2023/09/26 07:38:00;;;;;;;15.13;11.85;;;;;;;14.54;100.00;102053.28;5091062;28;20031;-85
2023/09/26 07:40:25;;;;;;;12.55;11.10;;;;;;;14.56;100.00;102056.72;5093688;28;20247;-87
2023/09/26 07:42:51;;;;;;;15.52;12.00;;;;;;;14.59;100.00;102052.22;5094277;28;20437;-86
2023/09/26 07:45:16;;;;;;;11.82;10.05;;;;;;;14.63;100.00;102052.97;5095647;28;20062;-84
2023/09/26 07:47:43;;;;;;;13.02;10.50;;;;;;;14.64;100.00;102057.31;5095252;28;20319;-84
2023/09/26 07:50:09;;;;;;;17.80;12.55;;;;;;;14.67;100.00;102049.28;5096149;28;20586;-84
2023/09/26 07:52:35;;;;;;;13.45;11.30;;;;;;;14.70;100.00;102045.69;5092328;28;20044;-87
2023/09/26 07:55:00;;;;;;;13.75;11.18;;;;;;;14.74;100.00;102042.88;5090534;28;20016;-87
2023/09/26 07:57:26;;;;;;;12.30;9.73;;;;;;;14.80;100.00;102035.63;5092556;28;20370;-87
2023/09/26 07:59:51;;;;;;;12.15;10.13;;;;;;;14.84;100.00;102034.59;5091381;28;20035;-87
2023/09/26 08:02:16;;;;;;;10.75;9.30;;;;;;;14.87;100.00;102040.59;5090277;28;20028;-85
2023/09/26 08:04:42;;;;;;;13.13;9.80;;;;;;;14.90;100.00;102040.50;5095289;28;20250;-84
2023/09/26 08:07:07;;;;;;;10.23;9.13;;;;;;;14.94;100.00;102041.22;5092215;28;20043;-85
2023/09/26 08:09:32;;;;;;;11.50;9.18;;;;;;;14.97;100.00;102046.34;5089138;28;20460;-86
2023/09/26 08:11:58;;;;;;;9.45;8.57;;;;;;;15.00;100.00;102037.47;5093136;28;20028;-86
2023/09/26 08:14:24;;;;;;;10.55;8.82;;;;;;;15.03;100.00;102040.00;5093399;28;20034;-85
2023/09/26 08:16:49;;;;;;;11.00;9.63;;;;;;;15.06;100.00;102051.28;5094682;28;20024;-84
2023/09/26 08:19:15;;;;;;;12.23;10.20;;;;;;;15.08;100.00;102059.13;5092587;28;20081;-84
2023/09/26 08:21:40;;;;;;;10.82;9.68;;;;;;;15.10;100.00;102052.03;5093566;28;20118;-84
2023/09/26 08:24:06;;;;;;;11.25;8.90;;;;;;;15.12;100.00;102039.63;5092514;28;20040;-84
2023/09/26 08:26:31;;;;;;;10.30;9.20;;;;;;;15.15;100.00;102029.81;5089829;28;20326;-84
2023/09/26 08:28:57;;;;;;;9.07;8.23;;;;;;;15.20;100.00;102031.41;5090458;28;20131;-86
2023/09/26 08:31:22;;;;;;;13.65;11.00;;;;;;;15.23;100.00;102050.59;5094148;28;20229;-86
2023/09/26 08:33:49;;;;;;;24.88;12.43;;;;;;;15.25;100.00;102045.25;5090096;28;20059;-87
2023/09/26 08:36:20;;;;;;;10.40;9.07;;;;;;;15.28;100.00;102048.63;5094101;28;20104;-86
2023/09/26 08:38:47;;;;;;;14.15;11.77;;;;;;;15.32;100.00;102046.72;5092313;28;20028;-86
2023/09/26 08:41:15;;;;;;;12.13;10.20;;;;;;;15.34;100.00;102035.19;5094658;28;20381;-86
2023/09/26 08:43:41;;;;;;;10.65;9.52;;;;;;;15.36;100.00;102030.69;5092193;28;20055;-86
2023/09/26 08:46:07;;;;;;;12.98;9.27;;;;;;;15.39;100.00;102035.00;5093489;28;20022;-84
2023/09/26 08:48:33;;;;;;;15.68;11.00;;;;;;;15.42;100.00;102034.84;5093812;28;20366;-84
2023/09/26 08:50:59;;;;;;;10.13;8.98;;;;;;;15.44;100.00;102040.06;5095107;28;20032;-86
2023/09/26 08:53:25;;;;;;;13.25;9.52;;;;;;;15.43;100.00;102039.22;5092365;28;20027;-84
2023/09/26 08:55:51;;;;;;;18.52;13.90;;;;;;;15.44;100.00;102040.91;5094831;28;20034;-84
2023/09/26 08:58:19;;;;;;;16.77;11.77;;;;;;;15.45;100.00;102040.00;5093937;28;20015;-84
2023/09/26 09:00:45;;;;;;;17.83;11.00;;;;;;;15.47;100.00;102024.97;5094000;28;20062;-85
2023/09/26 09:03:10;;;;;;;11.85;9.38;;;;;;;15.49;100.00;102028.38;5093856;28;20221;-85
2023/09/26 09:05:36;;;;;;;12.70;10.07;;;;;;;15.51;100.00;102023.91;5093703;28;20067;-85
2023/09/26 09:08:02;;;;;;;13.80;9.60;;;;;;;15.53;100.00;102027.34;5093587;28;20044;-85
2023/09/26 09:10:27;;;;;;;10.48;8.85;;;;;;;15.55;100.00;102027.25;5091790;28;20365;-85
2023/09/26 09:13:03;;;;;;;18.33;9.65;;;;;;;15.60;100.00;102021.81;5094009;28;20063;-85
2023/09/26 09:15:30;;;;;;;14.52;11.98;;;;;;;15.61;100.00;102023.50;5089815;28;20436;-85
2023/09/26 09:17:56;;;;;;;12.95;8.32;;;;;;;15.64;100.00;102016.31;5091721;28;20066;-85
2023/09/26 09:20:33;;;;;;;12.88;9.80;;;;;;;15.66;100.00;102016.25;5090324;28;20589;-85
2023/09/26 09:23:00;;;;;;;13.07;8.45;;;;;;;15.67;100.00;102021.47;5089212;28;20235;-85
2023/09/26 09:25:36;;;;;;;14.73;10.48;;;;;;;15.69;100.00;102030.16;5093883;28;20032;-85
2023/09/26 09:28:04;;;;;;;9.93;8.75;;;;;;;15.73;100.00;102039.69;5090925;28;20039;-85
2023/09/26 09:30:36;;;;;;;12.50;8.63;;;;;;;15.76;100.00;102036.09;5093672;28;20069;-85
2023/09/26 09:33:01;;;;;;;10.98;9.20;;;;;;;15.78;100.00;102036.88;5093282;28;20052;-85
2023/09/26 09:35:27;;;;;;;10.02;8.82;;;;;;;15.81;100.00;102026.19;5090069;28;20246;-85
2023/09/26 09:37:52;;;;;;;15.70;9.45;;;;;;;15.84;100.00;102031.31;5092195;28;20070;-85
2023/09/26 09:40:22;;;;;;;11.48;9.18;;;;;;;15.88;100.00;102024.13;5093602;28;20085;-85
2023/09/26 09:42:49;;;;;;;10.55;9.15;;;;;;;15.93;100.00;102030.94;5091582;28;20047;-85
2023/09/26 09:45:18;;;;;;;14.98;10.60;;;;;;;15.98;100.00;102022.78;5093616;28;20393;-85
2023/09/26 09:47:45;;;;;;;18.42;10.77;;;;;;;16.03;100.00;102027.88;5093127;28;20040;-85
2023/09/26 09:50:13;;;;;;;13.35;10.13;;;;;;;16.07;100.00;102025.03;5093632;28;20036;-85
2023/09/26 09:52:43;;;;;;;10.60;8.77;;;;;;;16.14;100.00;102030.03;5093133;28;20035;-85
2023/09/26 09:55:13;;;;;;;14.82;8.85;;;;;;;16.20;100.00;102024.47;5093225;28;20039;-85
2023/09/26 09:57:43;;;;;;;10.35;8.15;;;;;;;16.24;100.00;102026.88;5093124;28;20032;-85
2023/09/26 10:00:08;;;;;;;13.90;8.30;;;;;;;16.27;100.00;102028.56;5093605;28;20030;-85
2023/09/26 10:02:34;;;;;;;12.90;7.97;;;;;;;16.29;100.00;102035.47;5093198;28;20404;-85
2023/09/26 10:05:05;;;;;;;13.13;7.10;;;;;;;16.31;100.00;102032.75;5093419;28;20365;-85
2023/09/26 10:07:32;;;;;;;7.88;7.13;;;;;;;16.37;100.00;102036.91;5091456;28;20069;-85
2023/09/26 10:09:58;;;;;;;10.48;5.90;;;;;;;16.41;100.00;102017.31;5093006;28;20034;-84
2023/09/26 10:12:25;;;;;;;15.30;6.68;;;;;;;16.50;100.00;102024.84;5092282;28;20040;-85
2023/09/26 10:14:50;;;;;;;6.95;6.18;;;;;;;16.56;100.00;102027.19;5092691;28;20194;-85
2023/09/26 10:17:17;;;;;;;9.35;6.22;;;;;;;16.62;100.00;102016.31;5092385;28;20572;-84
2023/09/26 10:19:42;;;;;;;7.50;5.45;;;;;;;16.69;100.00;102022.19;5091402;28;20055;-85
2023/09/26 10:22:19;;;;;;;8.32;5.63;;;;;;;16.77;100.00;102024.47;5096357;28;20095;-84
2023/09/26 10:24:48;;;;;;;6.72;5.22;;;;;;;16.83;100.00;102009.19;5095230;28;20065;-85
2023/09/26 10:27:22;;;;;;;5.47;4.88;;;;;;;16.90;100.00;102007.13;5099044;28;20031;-84
2023/09/26 10:29:50;;;;;;;7.03;4.90;;;;;;;16.93;100.00;101999.00;5091264;28;20044;-84
2023/09/26 10:32:27;;;;;;;11.73;5.55;;;;;;;16.99;100.00;101989.91;5090051;28;20137;-85
2023/09/26 10:34:52;;;;;;;7.40;3.92;;;;;;;17.05;100.00;101994.91;5093172;28;20103;-85
2023/09/26 10:37:21;;;;;;;8.63;4.30;;;;;;;17.10;100.00;102003.47;5095713;28;20031;-84
2023/09/26 10:39:46;;;;;;;4.00;3.70;;;;;;;17.15;100.00;102005.88;5093349;28;20116;-84
2023/09/26 10:42:13;;;;;;;4.82;4.05;;;;;;;17.18;100.00;102005.75;5091589;28;20493;-84
2023/09/26 10:44:49;;;;;;;3.97;3.65;;;;;;;17.19;100.00;102002.13;5085099;28;20070;-84
2023/09/26 10:47:15;;;;;;;6.85;4.00;;;;;;;17.22;100.00;101997.56;5092119;28;20032;-84
2023/09/26 10:49:41;;;;;;;5.95;4.20;;;;;;;17.30;100.00;101993.66;5087074;28;20051;-85
2023/09/26 10:52:08;;;;;;;4.10;3.70;;;;;;;17.32;100.00;101982.06;5091524;28;20036;-85
2023/09/26 10:54:36;;;;;;;4.82;4.25;;;;;;;17.41;100.00;101975.47;5087692;28;20023;-84
2023/09/26 10:57:01;;;;;;;6.50;4.18;;;;;;;17.49;100.00;101977.72;5089713;28;20081;-86
2023/09/26 10:59:30;;;;;;;5.85;4.35;;;;;;;17.56;100.00;101974.66;5089236;28;20300;-86
2023/09/26 11:01:58;;;;;;;6.30;4.47;;;;;;;17.62;100.00;101976.97;5096522;28;20039;-87
2023/09/26 11:04:27;;;;;;;6.32;4.07;;;;;;;17.68;100.00;101977.59;5094612;28;20388;-86
2023/09/26 11:06:53;;;;;;;5.82;3.63;;;;;;;17.74;100.00;101978.13;5095401;28;20069;-87
2023/09/26 11:09:18;;;;;;;6.38;4.45;;;;;;;17.80;98.88;101979.59;5095367;28;20047;-87
2023/09/26 11:11:44;;;;;;;4.50;3.75;;;;;;;17.84;97.28;101971.41;5096144;28;20035;-84